Data for 08/31/2015

Time Sea-Level Adjusted Pressure Absolute Pressure Temperature Relative Humidity Dew Point   
(mb) (inHg) (mb) (inHg) (C) (F) (%) (C) (F)
00:05 1019 30.09 848 25.04 12 53.5 52 2.6 36.6
00:10 1019 30.09 848 25.04 11.9 53.5 53 2.7 36.8
00:15 1019 30.09 848 25.04 11.6 52.8 54 2.8 37
00:20 1019 30.09 848 25.04 11.3 52.4 55 2.6 36.7
00:25 1019 30.09 848 25.04 11.2 52.2 55 2.5 36.5
00:30 1019 30.09 848 25.04 11.1 51.9 57 2.8 37.1
00:35 1019 30.09 848 25.04 10.7 51.3 58 2.9 37.1
00:40 1019 30.09 848 25.04 10.5 50.9 58 2.6 36.7
00:45 1019 30.09 848 25.04 10.6 51.2 57 2.5 36.5
00:50 1019 30.09 848 25.04 10.7 51.3 58 2.7 36.9
00:55 1019 30.09 848 25.04 10.6 51 59 2.9 37.3
01:00 1019 30.09 848 25.04 10.1 50.2 61 3 37.3
01:05 1019 30.09 848 25.04 9.9 49.7 62 2.9 37.2
01:10 1019 30.09 848 25.04 9.7 49.5 62 2.9 37.2
01:15 1019 30.09 848 25.04 9.6 49.3 62 2.8 37.1
01:20 1019 30.09 848 25.04 9.6 49.2 64 3 37.4
01:25 1019 30.09 848 25.04 9.3 48.8 64 2.8 37
01:30 1019 30.09 848 25.04 9.2 48.5 65 3 37.4
01:35 1019 30.09 848 25.04 8.6 47.6 68 3 37.4
01:40 1019 30.09 848 25.04 8.4 47.1 67 2.6 36.8
01:45 1019 30.09 848 25.04 8.6 47.4 66 2.6 36.8
01:50 1019 30.09 848 25.04 8.6 47.4 67 2.7 36.9
01:55 1019 30.09 848 25.04 8.4 47.2 67 2.6 36.7
02:00 1019 30.09 848 25.04 8.5 47.4 66 2.5 36.5
02:05 1019 30.09 848 25.04 8.6 47.6 66 2.6 36.7
02:10 1019 30.09 848 25.04 8.7 47.6 65 2.6 36.6
02:15 1019 30.09 848 25.04 8.7 47.7 65 2.6 36.7
02:20 1019 30.09 848 25.04 8.7 47.6 66 2.7 36.8
02:25 1019 30.09 848 25.04 8.5 47.2 67 2.7 36.9
02:30 1019 30.09 848 25.04 8.2 46.8 68 2.6 36.7
02:35 1019 30.09 848 25.04 8.1 46.7 68 2.7 36.9
02:40 1019 30.09 848 25.04 7.9 46.2 70 2.8 37
02:45 1019 30.09 848 25.04 7.7 45.9 70 2.5 36.6
02:50 1019 30.09 848 25.04 7.8 46.1 68 2.4 36.3
02:55 1019 30.09 848 25.04 8.2 46.8 66 2.3 36.2
03:00 1019 30.09 848 25.04 8.5 47.2 65 2.3 36.2
03:05 1019 30.09 848 25.04 8.6 47.4 65 2.5 36.5
03:10 1019 30.09 848 25.04 8.5 47.3 66 2.5 36.6
03:15 1019 30.09 848 25.04 8.5 47.2 66 2.5 36.5
03:20 1019 30.09 849 25.07 8.5 47.3 66 2.5 36.6
03:25 1019 30.09 848 25.04 8.4 47.2 66 2.5 36.5
03:30 1019 30.09 848 25.04 8.5 47.2 66 2.5 36.5
03:35 1019 30.09 848 25.04 8.5 47.3 66 2.6 36.6
03:40 1019 30.09 849 25.07 8.4 47.1 67 2.7 36.8
03:45 1019 30.09 848 25.04 8.2 46.8 66 2.3 36.1
03:50 1019 30.09 848 25.04 8.3 47 66 2.4 36.2
03:55 1019 30.09 848 25.04 8.4 47.1 66 2.4 36.3
04:00 1019 30.09 848 25.04 8.3 47 66 2.4 36.3
04:05 1019 30.09 848 25.04 8.3 47 65 2.2 36
04:10 1019 30.09 848 25.04 8.3 47 66 2.4 36.4
04:15 1019 30.09 848 25.04 8 46.5 68 2.4 36.4
04:20 1019 30.09 848 25.04 7.9 46.2 68 2.3 36.2
04:25 1019 30.09 848 25.04 7.7 45.9 68 2.3 36.1
04:30 1019 30.09 848 25.04 7.7 45.9 68 2.2 36
04:35 1019 30.09 848 25.04 7.8 46.1 67 2.1 35.8
04:40 1019 30.09 848 25.04 7.9 46.2 67 2.2 36
04:45 1019 30.09 848 25.04 8 46.4 67 2.3 36.1
04:50 1019 30.09 848 25.04 7.9 46.1 67 2.2 36
04:55 1019 30.09 848 25.04 7.7 45.9 68 2.2 35.9
05:00 1019 30.09 848 25.04 7.6 45.7 68 2.2 35.9
05:05 1019 30.09 848 25.04 7.5 45.4 69 2.1 35.8
05:10 1019 30.09 848 25.04 7.4 45.3 69 2.1 35.8
05:15 1019 30.09 848 25.04 7.4 45.3 69 2.1 35.8
05:20 1019 30.09 848 25.04 7.4 45.4 69 2 35.7
05:25 1019 30.09 848 25.04 7.5 45.5 68 2.1 35.8
05:30 1019 30.09 848 25.04 7.7 45.9 67 2 35.6
05:35 1019 30.09 848 25.04 7.6 45.8 68 2.2 35.9
05:40 1019 30.09 848 25.04 7.5 45.4 69 2.2 35.9
05:45 1019 30.09 848 25.04 7.4 45.4 69 2.2 36
05:50 1019 30.09 848 25.04 7.5 45.4 69 2.1 35.8
05:55 1019 30.09 848 25.04 7.3 45.2 69 2.1 35.7
06:00 1019 30.09 849 25.07 7.2 45 69 2 35.6
06:05 1019 30.09 849 25.07 7.3 45.2 69 2 35.7
06:10 1019 30.09 849 25.07 7.4 45.2 68 1.9 35.5
06:15 1019 30.09 849 25.07 7.4 45.3 69 2 35.7
06:20 1019 30.09 849 25.07 7.5 45.5 68 2 35.7
06:25 1019 30.09 849 25.07 7.6 45.6 68 2.1 35.8
06:30 1019 30.09 849 25.07 7.5 45.6 68 2.1 35.7
06:35 1020 30.12 849 25.07 7.4 45.4 68 2 35.7
06:40 1020 30.12 849 25.07 7.4 45.3 68 2 35.5
06:45 1020 30.12 849 25.07 7.8 46 67 2 35.6
06:50 1020 30.12 849 25.07 8 46.5 66 2.1 35.8
06:55 1020 30.12 849 25.07 8.3 46.9 65 2.1 35.8
07:00 1020 30.12 849 25.07 8.6 47.5 64 2.2 36
07:05 1020 30.12 849 25.07 8.9 48.1 64 2.4 36.4
07:10 1020 30.12 849 25.07 9.4 48.8 62 2.4 36.4
07:15 1020 30.12 849 25.07 9.9 49.8 60 2.6 36.6
07:20 1020 30.12 849 25.07 10.2 50.4 59 2.5 36.5
07:25 1020 30.12 849 25.07 10.6 51.2 57 2.6 36.6
07:30 1020 30.12 849 25.07 11.1 52 57 3 37.5
07:35 1020 30.12 849 25.07 11.6 52.9 54 2.8 37
07:40 1020 30.12 849 25.07 11.9 53.4 54 3 37.4
07:45 1020 30.12 849 25.07 12.2 54 51 2.3 36.2
07:50 1020 30.12 849 25.07 12.8 55 50 2.7 36.8
07:55 1020 30.12 849 25.07 13.1 55.6 50 2.9 37.1
08:00 1020 30.12 849 25.07 13.2 55.7 49 2.8 37
08:05 1020 30.12 849 25.07 13.6 56.5 46 2.3 36.1
08:10 1020 30.12 849 25.07 14.1 57.5 45 2.5 36.5
08:15 1020 30.12 849 25.07 14.2 57.5 43 2 35.7
08:20 1020 30.12 849 25.07 14.4 58 43 2 35.7
08:25 1020 30.12 849 25.07 13.6 56.5 46 2.1 35.9
08:30 1020 30.12 849 25.07 14.1 57.4 43 1.7 35
08:35 1020 30.12 849 25.07 14.9 58.8 41 1.8 35.2
08:40 1020 30.12 849 25.07 14.6 58.2 41 1.4 34.6
08:45 1020 30.12 849 25.07 14.2 57.5 40 1 33.8
08:50 1020 30.12 849 25.07 13.7 56.7 42 1.3 34.3
08:55 1020 30.12 849 25.07 13.4 56.2 43 1.2 34.2
09:00 1020 30.12 849 25.07 14.2 57.6 41 1.3 34.3
09:05 1020 30.12 849 25.07 14.6 58.3 40 1.1 34
09:10 1020 30.12 849 25.07 15.3 59.5 38 1.2 34.2
09:15 1020 30.12 849 25.07 15.4 59.6 39 1.6 35
09:20 1020 30.12 849 25.07 15.4 59.6 42 2.7 36.9
09:25 1020 30.12 849 25.07 15.3 59.5 39 1.4 34.5
09:30 1020 30.12 849 25.07 15.5 59.8 37 1.1 34
09:35 1020 30.12 849 25.07 16.2 61.1 37 1.5 34.7
09:40 1020 30.12 849 25.07 15.8 60.4 38 1.6 34.9
09:45 1020 30.12 849 25.07 16.1 60.9 36 1.2 34.2
09:50 1020 30.12 849 25.07 16.5 61.6 34 0.8 33.4
09:55 1020 30.12 849 25.07 16.6 61.9 35 1.3 34.3
10:00 1020 30.12 849 25.07 16.5 61.7 34 0.6 33.1
10:05 1020 30.12 849 25.07 17.2 62.9 33 1 33.9
10:10 1020 30.12 849 25.07 17.4 63.2 34 1.3 34.3
10:15 1020 30.12 849 25.07 17.4 63.4 32 0.8 33.4
10:20 1020 30.12 849 25.07 17.8 64 32 1 33.8
10:25 1020 30.12 849 25.07 18.1 64.6 31 0.9 33.7
10:30 1020 30.12 849 25.07 18.7 65.6 30 1.1 34
10:35 1019 30.09 849 25.07 18.7 65.6 31 1.2 34.2
10:40 1019 30.09 849 25.07 18.9 66.1 30 1.2 34.1
10:45 1019 30.09 849 25.07 18.4 65 33 1.8 35.2
10:50 1019 30.09 849 25.07 17.7 63.9 32 1.1 34
10:55 1019 30.09 849 25.07 18.5 65.2 32 1.4 34.6
11:00 1019 30.09 849 25.07 18.8 65.9 30 1.2 34.1
11:05 1019 30.09 848 25.04 19.6 67.2 30 1.6 34.9
11:10 1019 30.09 849 25.07 19.8 67.6 29 1.6 34.9
11:15 1019 30.09 848 25.04 20.1 68.1 29 1.5 34.8
11:20 1019 30.09 848 25.04 20.1 68.2 28 1.3 34.4
11:25 1019 30.09 848 25.04 19.6 67.2 29 1.3 34.4
11:30 1019 30.09 848 25.04 19.6 67.2 29 1.1 34
11:35 1019 30.09 848 25.04 20.5 68.9 28 1.4 34.4
11:40 1019 30.09 848 25.04 20.5 68.8 28 1.5 34.7
11:45 1019 30.09 848 25.04 20.2 68.3 29 1.9 35.4
11:50 1019 30.09 848 25.04 20.1 68.2 28 1.3 34.4
11:55 1019 30.09 848 25.04 20.3 68.5 28 1.2 34.2
12:00 1019 30.09 848 25.04 20.7 69.2 27 1.2 34.2
12:05 1019 30.09 848 25.04 20.9 69.6 28 1.9 35.5
12:10 1019 30.09 848 25.04 20.8 69.5 28 1.7 35
12:15 1018 30.06 848 25.04 20.9 69.6 26 1.1 33.9
12:20 1018 30.06 848 25.04 21 69.7 27 1.3 34.3
12:25 1018 30.06 848 25.04 21.8 71.2 26 1.5 34.8
12:30 1018 30.06 847 25.01 22.3 72.2 25 1.4 34.5
12:35 1018 30.06 847 25.01 22 71.7 26 1.7 35
12:40 1018 30.06 847 25.01 22.5 72.4 25 1.6 34.9
12:45 1018 30.06 847 25.01 22.2 71.9 26 2.2 35.9
12:50 1018 30.06 847 25.01 22.1 71.9 27 2.2 36
12:55 1018 30.06 847 25.01 23 73.4 23 1.2 34.1
13:00 1018 30.06 847 25.01 22.9 73.2 25 1.9 35.5
13:05 1018 30.06 847 25.01 22.2 71.9 26 1.7 35.1
13:10 1018 30.06 847 25.01 21.9 71.4 26 1.9 35.3
13:15 1018 30.06 847 25.01 21.2 70.1 27 1.5 34.6
13:20 1018 30.06 847 25.01 21.2 70.2 26 1.1 34.1
13:25 1018 30.06 847 25.01 22.1 71.8 25 1.2 34.2
13:30 1018 30.06 847 25.01 23.1 73.5 25 2 35.7
13:35 1018 30.06 847 25.01 22.9 73.1 25 2.1 35.7
13:40 1017 30.03 847 25.01 23.2 73.7 23 1.4 34.5
13:45 1017 30.03 847 25.01 23.2 73.8 24 2 35.7
13:50 1017 30.03 847 25.01 22.6 72.6 25 1.5 34.8
13:55 1017 30.03 847 25.01 22.9 73.2 24 1.5 34.7
14:00 1017 30.03 847 25.01 23.3 74 23 1.3 34.3
14:05 1017 30.03 846 24.98 23.5 74.3 23 1.1 34
14:10 1017 30.03 846 24.98 23.7 74.7 23 1.5 34.6
14:15 1017 30.03 846 24.98 23.5 74.3 24 2 35.5
14:20 1017 30.03 846 24.98 22.9 73.3 25 2.1 35.8
14:25 1017 30.03 846 24.98 23.2 73.7 24 1.6 34.9
14:30 1017 30.03 846 24.98 23.8 74.8 22 1 33.8
14:35 1017 30.03 846 24.98 24.2 75.5 21 0.9 33.6
14:40 1017 30.03 846 24.98 23.5 74.2 22 1 33.7
14:45 1017 30.03 846 24.98 23 73.5 23 1.1 33.9
14:50 1017 30.03 846 24.98 24 75.2 21 0.5 32.9
14:55 1017 30.03 846 24.98 24.7 76.4 20 0.6 33.2
15:00 1017 30.03 846 24.98 24.7 76.5 21 1.1 33.9
15:05 1017 30.03 846 24.98 25 77 19 0 32
15:10 1017 30.03 846 24.98 24.7 76.4 20 0.7 33.3
15:15 1017 30.03 846 24.98 24.9 76.8 20 0.4 32.7
15:20 1017 30.03 846 24.98 24.1 75.4 21 0.8 33.4
15:25 1016 30 846 24.98 23.6 74.4 21 0.1 32.2
15:30 1016 30 846 24.98 23.8 74.8 21 0.2 32.3
15:35 1016 30 846 24.98 24.8 76.6 19 0.1 32.1
15:40 1016 30 846 24.98 24.6 76.3 21 1.2 34.1
15:45 1016 30 846 24.98 24.2 75.5 22 1.2 34.2
15:50 1016 30 845 24.95 24.1 75.5 22 1.1 33.9
15:55 1016 30 845 24.95 24.1 75.4 21 0.9 33.6
16:00 1016 30 845 24.95 24.5 76.1 22 1.4 34.5
16:05 1016 30 845 24.95 24.3 75.7 19 -0.4 31.3
16:10 1016 30 845 24.95 24.6 76.3 20 0.7 33.2
16:15 1016 30 845 24.95 24.5 76 20 0.1 32.2
16:20 1016 30 845 24.95 25 76.9 19 0.1 32.2
16:25 1016 30 845 24.95 24.2 75.5 20 -0.1 31.9
16:30 1016 30 845 24.95 24.2 75.6 20 -0.2 31.7
16:35 1016 30 845 24.95 24 75.2 20 -0 31.9
16:40 1016 30 845 24.95 24.1 75.3 20 -0.3 31.5
16:45 1016 30 845 24.95 24.5 76.1 21 0.9 33.7
16:50 1016 30 845 24.95 24.4 75.9 19 -0.1 31.7
16:55 1016 30 845 24.95 24 75.2 20 -0.1 31.8
17:00 1016 30 845 24.95 23.8 74.8 20 -0.2 31.6
17:05 1016 30 845 24.95 23.8 74.8 21 0.3 32.6
17:10 1016 30 845 24.95 24.1 75.4 19 -1 30.1
17:15 1016 30 845 24.95 23.8 74.8 19 -0.9 30.4
17:20 1016 30 845 24.95 23.9 74.9 19 -0.7 30.8
17:25 1016 30 845 24.95 24 75.2 20 0.1 32.1
17:30 1016 30 845 24.95 23.5 74.4 20 -0.3 31.5
17:35 1016 30 845 24.95 23.7 74.7 22 0.8 33.4
17:40 1016 30 845 24.95 23.8 74.8 20 -0.4 31.4
17:45 1016 30 845 24.95 23.6 74.4 20 -0.2 31.7
17:50 1016 30 845 24.95 23.3 73.9 22 0.6 33.1
17:55 1016 30 845 24.95 23 73.4 22 0.4 32.7
18:00 1016 30 845 24.95 23 73.4 22 0.6 33
18:05 1016 30 845 24.95 23 73.3 21 -0.2 31.7
18:10 1016 30 845 24.95 22.8 73.1 23 0.5 32.9
18:15 1016 30 845 24.95 22.6 72.6 21 -0.3 31.4
18:20 1016 30 845 24.95 22.5 72.5 22 -0.2 31.6
18:25 1016 30 845 24.95 22.4 72.4 23 0.8 33.4
18:30 1016 30 845 24.95 22.6 72.6 24 0.9 33.6
18:35 1016 30 845 24.95 22.5 72.6 25 1.6 34.9
18:40 1016 30 845 24.95 22.5 72.5 29 3.6 38.5
18:45 1016 30 845 24.95 22.1 71.8 28 3 37.3
18:50 1016 30 845 24.95 21.4 70.6 28 2.6 36.6
18:55 1016 30 845 24.95 21.2 70.2 29 2.7 36.9
19:00 1016 30 845 24.95 21 69.9 32 3.9 39
19:05 1016 30 845 24.95 20.7 69.2 34 4.4 39.9
19:10 1016 30 845 24.95 20.7 69.2 32 3.5 38.3
19:15 1016 30 845 24.95 20.5 68.9 37 5.4 41.8
19:20 1016 30 845 24.95 19.8 67.6 38 5.2 41.3
19:25 1016 30 845 24.95 19.2 66.6 34 3.3 37.9
19:30 1016 30 845 24.95 18.8 65.9 36 3.5 38.3
19:35 1016 30 845 24.95 18.6 65.4 39 4.5 40.2
19:40 1016 30 845 24.95 18.1 64.7 38 3.7 38.6
19:45 1016 30 845 24.95 17.9 64.3 39 3.9 38.9
19:50 1016 30 845 24.95 17.6 63.7 40 4 39.2
19:55 1016 30 845 24.95 17.4 63.3 40 3.7 38.7
20:00 1016 30 845 24.95 17 62.6 43 4.4 39.9
20:05 1016 30 845 24.95 16.6 61.9 42 3.6 38.5
20:10 1016 30 845 24.95 16.9 62.4 36 1.7 35
20:15 1016 30 845 24.95 17.5 63.5 36 2.5 36.5
20:20 1016 30 845 24.95 17.5 63.5 36 2.5 36.4
20:25 1016 30 845 24.95 17.5 63.6 35 1.9 35.3
20:30 1016 30 845 24.95 17.6 63.6 35 2 35.6
20:35 1016 30 845 24.95 17.1 62.9 41 3.8 38.9
20:40 1016 30 845 24.95 16.8 62.3 36 1.9 35.4
20:45 1016 30 845 24.95 16.8 62.2 37 2.2 35.9
20:50 1016 30 845 24.95 16.6 61.9 38 2.3 36.1
20:55 1016 30 845 24.95 16.4 61.5 36 1.6 34.8
21:00 1016 30 845 24.95 16.3 61.4 36 1.4 34.5
21:05 1016 30 845 24.95 16.6 61.8 34 0.7 33.3
21:10 1016 30 845 24.95 16.8 62.3 33 0.6 33.1
21:15 1016 30 845 24.95 16.8 62.3 33 0.7 33.3
21:20 1016 30 845 24.95 16.6 61.9 35 1.1 34
21:25 1016 30 845 24.95 16.5 61.8 34 0.5 33
21:30 1016 30 845 24.95 16.5 61.8 34 0.7 33.2
21:35 1016 30 845 24.95 16.4 61.6 34 0.5 32.9
21:40 1016 30 845 24.95 16.3 61.4 34 0.4 32.7
21:45 1016 30 845 24.95 16.2 61.2 34 0.4 32.7
21:50 1016 30 845 24.95 16.2 61.1 34 0.4 32.7
21:55 1016 30 845 24.95 16.2 61.2 33 0.1 32.3
22:00 1016 30 845 24.95 16.3 61.4 33 0.3 32.5
22:05 1016 30 845 24.95 16.3 61.3 33 0.2 32.3
22:10 1016 30 845 24.95 16.3 61.3 33 0.1 32.2
22:15 1016 30 845 24.95 16.2 61.2 34 0.3 32.6
22:20 1016 30 845 24.95 16 60.8 32 -0.6 31
22:25 1016 30 845 24.95 16.6 61.9 32 -0.1 31.9
22:30 1016 30 845 24.95 16.6 61.9 32 0 32.1
22:35 1016 30 845 24.95 16.5 61.8 33 0.2 32.4
22:40 1016 30 845 24.95 16.2 61.2 33 -0.1 31.9
22:45 1016 30 845 24.95 16.2 61.1 31 -0.7 30.7
22:50 1016 30 845 24.95 16.5 61.7 32 -0.3 31.4
22:55 1016 30 845 24.95 17.4 63.3 30 -0.4 31.2
23:00 1016 30 845 24.95 16.7 62 32 -0.2 31.7
23:05 1016 30 845 24.95 16.4 61.5 33 0.1 32.2
23:10 1016 30 845 24.95 16.1 60.9 33 -0.2 31.6
23:15 1016 30 845 24.95 15.9 60.7 35 0.7 33.3
23:20 1016 30 845 24.95 15.7 60.3 37 1.3 34.4
23:25 1016 30 845 24.95 15.2 59.4 40 1.7 35.1
23:30 1016 30 845 24.95 14.9 58.9 35 -0.4 31.2
23:35 1016 30 845 24.95 15.5 59.8 34 -0.4 31.3
23:40 1016 30 845 24.95 15.5 60 35 0.1 32.3
23:45 1016 30 845 24.95 15.3 59.5 38 1 33.8
23:50 1016 30 845 24.95 15.2 59.4 33 -0.8 30.6
23:55 1016 30 845 24.95 15.4 59.7 34 -0.2 31.6
24:00 1016 30 845 24.95 15.1 59.1 36 0.3 32.6